createdAt,value
2023-04-27T00:00:37.397Z,8.97
2023-04-27T00:03:06.565Z,8.86
2023-04-27T00:05:39.356Z,8.92
2023-04-27T00:08:07.707Z,8.86
2023-04-27T00:10:35.665Z,8.84
2023-04-27T00:13:03.530Z,8.82
2023-04-27T00:15:31.266Z,8.84
2023-04-27T00:17:59.220Z,8.80
2023-04-27T00:20:26.877Z,8.86
2023-04-27T00:22:56.637Z,8.81
2023-04-27T00:25:24.574Z,8.80
2023-04-27T00:27:52.218Z,8.75
2023-04-27T00:30:19.914Z,8.67
2023-04-27T00:32:47.948Z,8.63
2023-04-27T00:35:17.586Z,8.60
2023-04-27T00:37:45.372Z,8.58
2023-04-27T00:40:14.773Z,8.56
2023-04-27T00:42:42.626Z,8.55
2023-04-27T00:45:11.746Z,8.50
2023-04-27T00:47:39.462Z,8.35
2023-04-27T00:50:08.623Z,8.35
2023-04-27T00:52:37.275Z,8.31
2023-04-27T00:55:05.900Z,8.28
2023-04-27T00:57:35.463Z,8.25
2023-04-27T01:00:06.880Z,8.18
2023-04-27T01:02:36.945Z,8.14
2023-04-27T01:05:05.015Z,8.09
2023-04-27T01:07:32.884Z,8.01
2023-04-27T01:10:00.501Z,7.96
2023-04-27T01:12:28.630Z,7.91
2023-04-27T01:14:57.592Z,7.86
2023-04-27T01:17:25.671Z,7.85
2023-04-27T01:19:55.324Z,7.84
2023-04-27T01:22:23.316Z,7.85
2023-04-27T01:24:52.334Z,7.83
2023-04-27T01:27:19.999Z,7.83
2023-04-27T01:29:48.124Z,7.83
2023-04-27T01:32:15.748Z,7.81
2023-04-27T01:34:43.752Z,7.79
2023-04-27T01:37:12.031Z,7.77
2023-04-27T01:39:40.047Z,7.72
2023-04-27T01:42:10.406Z,7.70
2023-04-27T01:44:40.820Z,7.66
2023-04-27T01:47:10.196Z,7.65
2023-04-27T01:49:38.010Z,7.62
2023-04-27T01:52:05.678Z,7.61
2023-04-27T01:54:34.773Z,7.59
2023-04-27T01:57:02.644Z,7.58
2023-04-27T01:59:31.812Z,7.55
2023-04-27T02:01:59.545Z,7.48
2023-04-27T02:04:27.585Z,7.37
2023-04-27T02:06:55.307Z,7.33
2023-04-27T02:09:23.164Z,7.33
2023-04-27T02:11:50.884Z,7.24
2023-04-27T02:14:18.660Z,7.19
2023-04-27T02:16:49.348Z,7.07
2023-04-27T02:19:17.328Z,7.05
2023-04-27T02:21:44.975Z,7.01
2023-04-27T02:24:12.758Z,6.96
2023-04-27T02:26:40.694Z,6.89
2023-04-27T02:29:08.947Z,6.90
2023-04-27T02:31:37.281Z,6.91
2023-04-27T02:34:07.016Z,6.90
2023-04-27T02:36:34.710Z,6.92
2023-04-27T02:39:02.707Z,6.94
2023-04-27T02:41:32.731Z,6.94
2023-04-27T02:44:00.510Z,6.86
2023-04-27T02:46:28.185Z,6.77
2023-04-27T02:48:56.517Z,6.71
2023-04-27T02:51:26.065Z,6.66
2023-04-27T02:53:54.466Z,6.59
2023-04-27T02:56:22.089Z,6.56
2023-04-27T02:58:49.877Z,6.53
2023-04-27T03:01:18.184Z,6.46
2023-04-27T03:03:47.438Z,6.37
2023-04-27T03:06:15.865Z,6.29
2023-04-27T03:08:45.948Z,6.24
2023-04-27T03:11:13.768Z,6.13
2023-04-27T03:13:42.641Z,6.09
2023-04-27T03:16:11.668Z,6.11
2023-04-27T03:18:40.631Z,6.12
2023-04-27T03:21:09.317Z,6.14
2023-04-27T03:23:37.447Z,6.17
2023-04-27T03:26:10.917Z,6.19
2023-04-27T03:28:38.705Z,6.20
2023-04-27T03:31:07.437Z,6.23
2023-04-27T03:33:36.260Z,6.25
2023-04-27T03:36:05.523Z,6.23
2023-04-27T03:38:35.916Z,6.11
2023-04-27T03:41:04.438Z,5.98
2023-04-27T03:43:33.422Z,5.56
2023-04-27T03:46:01.392Z,5.70
2023-04-27T03:48:29.257Z,5.65
2023-04-27T03:50:57.249Z,5.59
2023-04-27T03:53:24.928Z,5.56
2023-04-27T03:55:53.108Z,5.56
2023-04-27T03:58:20.765Z,5.54
2023-04-27T04:01:10.088Z,5.54
2023-04-27T04:03:38.441Z,5.56
2023-04-27T04:06:08.846Z,5.55
2023-04-27T04:08:36.542Z,5.52
2023-04-27T04:11:04.359Z,5.55
2023-04-27T04:13:32.154Z,5.52
2023-04-27T04:16:04.544Z,5.47
2023-04-27T04:18:33.717Z,5.53
2023-04-27T04:21:02.152Z,5.59
2023-04-27T04:23:29.942Z,5.63
2023-04-27T04:25:58.596Z,5.68
2023-04-27T04:28:30.675Z,5.70
2023-04-27T04:30:59.071Z,5.76
2023-04-27T04:33:27.203Z,5.83
2023-04-27T04:35:56.192Z,5.88
2023-04-27T04:38:24.435Z,5.96
2023-04-27T04:40:52.933Z,5.94
2023-04-27T04:43:21.414Z,5.98
2023-04-27T04:45:49.298Z,6.07
2023-04-27T04:48:17.634Z,6.14
2023-04-27T04:50:46.575Z,6.29
2023-04-27T04:53:15.858Z,6.38
2023-04-27T04:55:43.537Z,6.47
2023-04-27T04:58:11.316Z,6.51
2023-04-27T05:00:39.068Z,6.56
2023-04-27T05:03:07.600Z,6.62
2023-04-27T05:05:35.621Z,6.70
2023-04-27T05:08:03.443Z,6.75
2023-04-27T05:10:32.690Z,6.85
2023-04-27T05:13:00.313Z,6.91
2023-04-27T05:15:27.955Z,6.98
2023-04-27T05:17:55.709Z,7.05
2023-04-27T05:20:23.334Z,7.08
2023-04-27T05:22:50.960Z,7.17
2023-04-27T05:25:18.858Z,7.27
2023-04-27T05:27:47.783Z,7.27
2023-04-27T05:30:15.644Z,7.40
2023-04-27T05:32:43.305Z,7.46
2023-04-27T05:35:11.347Z,7.55
2023-04-27T05:37:38.942Z,7.65
2023-04-27T05:40:09.337Z,7.74
2023-04-27T05:42:37.030Z,7.86
2023-04-27T05:45:07.574Z,7.95
2023-04-27T05:47:35.239Z,8.01
2023-04-27T05:50:03.686Z,8.12
2023-04-27T05:52:31.681Z,8.10
2023-04-27T05:54:59.838Z,8.20
2023-04-27T05:57:27.798Z,8.28
2023-04-27T05:59:55.590Z,8.35
2023-04-27T06:02:24.809Z,8.47
2023-04-27T06:04:52.563Z,8.58
2023-04-27T06:07:20.541Z,8.73
2023-04-27T06:09:48.132Z,8.83
2023-04-27T06:12:15.893Z,8.95
2023-04-27T06:14:43.484Z,8.99
2023-04-27T06:17:11.313Z,9.16
2023-04-27T06:19:40.578Z,9.22
2023-04-27T06:22:08.536Z,9.35
2023-04-27T06:24:36.736Z,9.46
2023-04-27T06:27:04.693Z,9.60
2023-04-27T06:29:32.337Z,9.78
2023-04-27T06:32:00.230Z,9.94
2023-04-27T06:34:28.007Z,10.10
2023-04-27T06:36:57.267Z,10.24
2023-04-27T06:39:24.864Z,10.36
2023-04-27T06:41:52.463Z,10.46
2023-04-27T06:44:20.124Z,10.61
2023-04-27T06:46:47.736Z,10.72
2023-04-27T06:49:15.648Z,10.83
2023-04-27T06:51:43.691Z,10.91
2023-04-27T06:54:12.624Z,11.00
2023-04-27T06:56:40.704Z,11.11
2023-04-27T06:59:09.037Z,11.23
2023-04-27T07:01:37.259Z,11.38
2023-04-27T07:04:05.252Z,11.56
2023-04-27T07:06:33.554Z,11.61
2023-04-27T07:09:01.242Z,11.64
2023-04-27T07:11:30.368Z,11.75
2023-04-27T07:13:58.017Z,11.77
2023-04-27T07:16:25.978Z,11.87
2023-04-27T07:18:53.596Z,11.96
2023-04-27T07:21:21.861Z,11.94
2023-04-27T07:23:49.491Z,11.96
2023-04-27T07:26:18.030Z,12.14
2023-04-27T07:28:47.329Z,12.32
2023-04-27T07:31:15.323Z,12.29
2023-04-27T07:33:43.286Z,12.38
2023-04-27T07:36:11.296Z,12.53
2023-04-27T07:38:38.894Z,12.69
2023-04-27T07:41:07.398Z,12.69
2023-04-27T07:43:35.154Z,12.79
2023-04-27T07:46:04.504Z,12.97
2023-04-27T07:48:32.647Z,13.25
2023-04-27T07:51:00.254Z,13.59
2023-04-27T07:53:28.015Z,13.79
2023-04-27T07:55:55.617Z,13.85
2023-04-27T07:58:23.399Z,14.29
2023-04-27T08:00:51.006Z,14.48
2023-04-27T08:03:20.377Z,14.25
2023-04-27T08:05:48.346Z,14.33
2023-04-27T08:08:16.936Z,14.73
2023-04-27T08:10:44.630Z,14.89
2023-04-27T08:13:12.764Z,14.95
2023-04-27T08:15:40.512Z,14.83
2023-04-27T08:18:08.271Z,15.16
2023-04-27T08:20:37.213Z,14.97
2023-04-27T08:23:04.966Z,14.84
2023-04-27T08:25:33.591Z,14.61
2023-04-27T08:28:01.419Z,14.39
2023-04-27T08:30:29.074Z,14.96
2023-04-27T08:32:56.791Z,14.73
2023-04-27T08:35:24.400Z,15.08
2023-04-27T08:37:54.372Z,15.35
2023-04-27T08:40:24.490Z,15.33
2023-04-27T08:42:56.643Z,16.13
2023-04-27T08:45:25.019Z,16.33
2023-04-27T08:47:53.506Z,16.92
2023-04-27T08:50:21.340Z,16.85
2023-04-27T08:52:49.723Z,16.50
2023-04-27T08:55:18.851Z,16.37
2023-04-27T08:57:56.119Z,16.88
2023-04-27T09:00:25.425Z,17.24
2023-04-27T09:02:53.658Z,17.42
2023-04-27T09:05:24.420Z,17.54
2023-04-27T09:07:59.613Z,17.85
2023-04-27T09:10:29.913Z,18.07
2023-04-27T09:12:59.391Z,18.25
2023-04-27T09:15:27.367Z,18.46
2023-04-27T09:17:56.801Z,18.59
2023-04-27T09:20:27.234Z,18.87
2023-04-27T09:22:58.491Z,19.14
2023-04-27T09:25:29.521Z,19.70
2023-04-27T09:27:58.331Z,19.54
2023-04-27T09:30:26.618Z,19.89
2023-04-27T09:32:56.991Z,19.92
2023-04-27T09:35:27.290Z,20.26
2023-04-27T09:37:55.860Z,20.52
2023-04-27T09:40:26.620Z,20.14
2023-04-27T09:42:57.421Z,20.38
2023-04-27T09:45:25.960Z,20.80
2023-04-27T09:47:54.039Z,20.92
2023-04-27T09:50:22.072Z,20.81
2023-04-27T09:52:49.934Z,20.82
2023-04-27T09:55:20.987Z,20.76
2023-04-27T09:57:56.097Z,20.78
2023-04-27T10:00:48.418Z,20.69
2023-04-27T10:03:23.741Z,20.12
2023-04-27T10:06:32.879Z,19.68
2023-04-27T10:09:05.065Z,19.30
2023-04-27T10:11:40.738Z,18.42
2023-04-27T10:14:11.234Z,18.23
2023-04-27T10:16:47.292Z,18.28
2023-04-27T10:19:15.719Z,18.90
2023-04-27T10:21:58.984Z,19.38
2023-04-27T10:24:35.797Z,19.77
2023-04-27T10:27:06.282Z,20.08
2023-04-27T10:29:38.883Z,19.24
2023-04-27T10:32:14.023Z,20.03
2023-04-27T10:34:43.870Z,19.59
2023-04-27T10:37:14.088Z,19.87
2023-04-27T10:39:47.639Z,19.60
2023-04-27T10:42:27.112Z,19.57
2023-04-27T10:44:57.545Z,19.43
2023-04-27T10:47:38.061Z,19.77
2023-04-27T10:50:07.012Z,20.13
2023-04-27T10:52:34.958Z,19.79
2023-04-27T10:55:13.806Z,21.10
2023-04-27T10:57:47.703Z,20.81
2023-04-27T11:00:17.565Z,20.73
2023-04-27T11:02:46.628Z,20.62
2023-04-27T11:05:19.418Z,20.92
2023-04-27T11:07:48.043Z,20.87
2023-04-27T11:10:20.307Z,20.92
2023-04-27T11:12:48.197Z,21.03
2023-04-27T11:15:15.979Z,20.72
2023-04-27T11:17:44.343Z,19.82
2023-04-27T11:20:14.359Z,19.50
2023-04-27T11:22:46.813Z,19.43
2023-04-27T11:25:15.156Z,18.74
2023-04-27T11:27:42.836Z,18.75
2023-04-27T11:30:21.163Z,18.89
2023-04-27T11:32:48.893Z,18.74
2023-04-27T11:35:19.221Z,19.30
2023-04-27T11:37:59.391Z,19.75
2023-04-27T11:40:28.932Z,18.65
2023-04-27T11:43:03.133Z,19.41
2023-04-27T11:45:31.565Z,20.05
2023-04-27T11:47:59.870Z,18.41
2023-04-27T11:50:28.904Z,18.83
2023-04-27T11:53:01.410Z,18.10
2023-04-27T11:55:29.036Z,18.71
2023-04-27T11:57:58.942Z,19.46
2023-04-27T12:00:26.898Z,20.14
2023-04-27T12:02:54.574Z,20.31
2023-04-27T12:05:23.326Z,19.87
2023-04-27T12:07:53.211Z,20.43
2023-04-27T12:10:21.087Z,20.39
2023-04-27T12:12:48.858Z,19.53
2023-04-27T12:15:16.605Z,19.31
2023-04-27T12:17:44.284Z,19.27
2023-04-27T12:20:14.641Z,19.06
2023-04-27T12:22:42.370Z,19.16
2023-04-27T12:25:11.475Z,19.35
2023-04-27T12:27:39.066Z,19.72
2023-04-27T12:30:09.457Z,19.22
2023-04-27T12:32:37.156Z,19.73
2023-04-27T12:35:06.218Z,19.88
2023-04-27T12:37:33.985Z,19.09
2023-04-27T12:40:01.796Z,18.92
2023-04-27T12:42:30.737Z,18.08
2023-04-27T12:44:58.492Z,18.24
2023-04-27T12:47:45.998Z,18.46
2023-04-27T12:50:15.708Z,19.19
2023-04-27T12:52:43.283Z,19.14
2023-04-27T12:55:21.507Z,19.57
2023-04-27T12:58:00.153Z,19.88
2023-04-27T13:00:27.902Z,19.67
2023-04-27T13:02:56.609Z,18.48
2023-04-27T13:05:24.732Z,19.10
2023-04-27T13:07:52.315Z,19.18
2023-04-27T13:10:20.029Z,19.05
2023-04-27T13:12:47.706Z,19.00
2023-04-27T13:15:17.066Z,19.04
2023-04-27T13:17:44.736Z,19.24
2023-04-27T13:20:13.327Z,19.23
2023-04-27T13:22:42.236Z,19.27
2023-04-27T13:25:10.603Z,19.48
2023-04-27T13:27:38.223Z,19.67
2023-04-27T13:30:07.320Z,20.02
2023-04-27T13:32:36.459Z,19.97
2023-04-27T13:35:05.374Z,20.15
2023-04-27T13:37:33.363Z,20.31
2023-04-27T13:40:01.255Z,20.59
2023-04-27T13:42:30.023Z,20.74
2023-04-27T13:44:57.882Z,20.76
2023-04-27T13:47:25.496Z,20.47
2023-04-27T13:49:54.942Z,20.42
2023-04-27T13:52:22.536Z,20.25
2023-04-27T13:54:50.126Z,20.04
2023-04-27T13:57:17.891Z,19.97
2023-04-27T13:59:45.464Z,19.84
2023-04-27T14:02:14.729Z,19.90
2023-04-27T14:04:42.386Z,19.97
2023-04-27T14:07:11.594Z,20.16
2023-04-27T14:09:39.178Z,20.27
2023-04-27T14:12:06.947Z,20.63
2023-04-27T14:14:35.738Z,20.13
2023-04-27T14:17:03.811Z,20.84
2023-04-27T14:19:31.517Z,21.02
2023-04-27T14:22:00.018Z,21.21
2023-04-27T14:24:29.660Z,20.66
2023-04-27T14:26:57.523Z,20.95
2023-04-27T14:29:25.663Z,20.70
2023-04-27T14:31:53.981Z,20.99
2023-04-27T14:34:21.744Z,21.10
2023-04-27T14:36:49.476Z,21.20
2023-04-27T14:39:17.157Z,21.58
2023-04-27T14:41:46.291Z,22.00
2023-04-27T14:44:13.876Z,22.50
2023-04-27T14:46:41.665Z,22.91
2023-04-27T14:49:09.298Z,23.35
2023-04-27T14:51:37.024Z,22.55
2023-04-27T14:54:04.962Z,22.22
2023-04-27T14:56:32.690Z,22.14
2023-04-27T14:59:01.648Z,22.24
2023-04-27T15:01:29.462Z,21.67
2023-04-27T15:03:58.049Z,21.55
2023-04-27T15:06:28.149Z,21.58
2023-04-27T15:08:56.078Z,21.31
2023-04-27T15:11:23.747Z,21.70
2023-04-27T15:13:51.422Z,21.90
2023-04-27T15:16:20.832Z,21.34
2023-04-27T15:18:48.468Z,21.66
2023-04-27T15:21:16.050Z,21.82
2023-04-27T15:23:43.642Z,22.01
2023-04-27T15:26:11.229Z,22.19
2023-04-27T15:28:38.791Z,22.49
2023-04-27T15:31:06.608Z,23.06
2023-04-27T15:33:35.765Z,23.77
2023-04-27T15:36:03.597Z,24.70
2023-04-27T15:38:31.304Z,25.42
2023-04-27T15:40:59.111Z,25.84
2023-04-27T15:43:26.919Z,26.33
2023-04-27T15:45:54.640Z,25.67
2023-04-27T15:48:22.474Z,25.07
2023-04-27T15:50:51.396Z,24.36
2023-04-27T15:53:18.979Z,23.83
2023-04-27T15:55:46.791Z,23.09
2023-04-27T15:58:14.628Z,22.46
2023-04-27T16:00:42.259Z,20.95
2023-04-27T16:03:11.343Z,19.63
2023-04-27T16:05:39.220Z,19.60
2023-04-27T16:08:08.346Z,19.41
2023-04-27T16:10:36.014Z,19.47
2023-04-27T16:13:03.713Z,19.71
2023-04-27T16:15:31.297Z,19.55
2023-04-27T16:17:59.333Z,19.98
2023-04-27T16:20:28.934Z,19.99
2023-04-27T16:22:56.840Z,20.17
2023-04-27T16:25:25.776Z,20.37
2023-04-27T16:27:53.342Z,20.68
2023-04-27T16:30:21.812Z,20.96
2023-04-27T16:32:49.470Z,21.26
2023-04-27T16:35:17.052Z,21.70
2023-04-27T16:37:44.762Z,21.77
2023-04-27T16:40:13.497Z,21.41
2023-04-27T16:42:42.513Z,21.32
2023-04-27T16:45:11.169Z,21.05
2023-04-27T16:47:38.975Z,21.11
2023-04-27T16:50:07.489Z,21.54
2023-04-27T16:52:35.261Z,21.92
2023-04-27T16:55:02.852Z,22.01
2023-04-27T16:57:30.492Z,21.89
2023-04-27T17:00:00.879Z,21.95
2023-04-27T17:02:28.893Z,22.12
2023-04-27T17:04:57.560Z,22.46
2023-04-27T17:07:28.466Z,22.71
2023-04-27T17:09:56.103Z,22.82
2023-04-27T17:12:23.817Z,22.63
2023-04-27T17:14:51.433Z,22.39
2023-04-27T17:17:20.483Z,22.19
2023-04-27T17:19:48.060Z,21.88
2023-04-27T17:22:16.539Z,21.64
2023-04-27T17:24:44.134Z,21.31
2023-04-27T17:27:12.547Z,21.16
2023-04-27T17:29:40.147Z,20.91
2023-04-27T17:32:09.178Z,20.69
2023-04-27T17:34:38.781Z,20.41
2023-04-27T17:37:08.052Z,20.36
2023-04-27T17:39:36.042Z,20.49
2023-04-27T17:42:03.731Z,20.51
2023-04-27T17:44:31.835Z,20.29
2023-04-27T17:46:59.414Z,20.04
2023-04-27T17:49:27.599Z,19.73
2023-04-27T17:51:56.665Z,19.36
2023-04-27T17:54:24.279Z,19.14
2023-04-27T17:56:51.903Z,18.92
2023-04-27T17:59:19.706Z,18.79
2023-04-27T18:01:47.315Z,18.66
2023-04-27T18:04:15.191Z,18.51
2023-04-27T18:06:42.808Z,18.33
2023-04-27T18:09:13.100Z,18.19
2023-04-27T18:11:41.186Z,17.90
2023-04-27T18:14:08.918Z,17.68
2023-04-27T18:16:36.531Z,17.50
2023-04-27T18:19:04.438Z,17.31
2023-04-27T18:21:32.611Z,17.15
2023-04-27T18:24:00.290Z,17.02
2023-04-27T18:26:30.514Z,16.85
2023-04-27T18:28:58.502Z,16.69
2023-04-27T18:31:26.350Z,16.46
2023-04-27T18:33:53.989Z,16.31
2023-04-27T18:36:21.852Z,16.18
2023-04-27T18:38:49.515Z,16.10
2023-04-27T18:41:17.183Z,16.00
2023-04-27T18:43:46.850Z,15.92
2023-04-27T18:46:14.630Z,15.82
2023-04-27T18:48:42.279Z,15.77
2023-04-27T18:51:09.850Z,15.70
2023-04-27T18:53:37.448Z,15.63
2023-04-27T18:56:06.320Z,15.53
2023-04-27T18:58:34.941Z,15.43
2023-04-27T19:01:06.105Z,15.31
2023-04-27T19:03:46.634Z,15.19
2023-04-27T19:06:14.609Z,15.02
2023-04-27T19:08:42.337Z,14.91
2023-04-27T19:11:10.165Z,14.80
2023-04-27T19:13:40.772Z,14.70
2023-04-27T19:16:10.100Z,14.61
2023-04-27T19:18:37.831Z,14.50
2023-04-27T19:21:07.790Z,14.38
2023-04-27T19:23:36.625Z,14.29
2023-04-27T19:26:12.589Z,14.18
2023-04-27T19:28:41.513Z,14.12
2023-04-27T19:31:13.372Z,14.03
2023-04-27T19:33:46.797Z,13.86
2023-04-27T19:36:14.943Z,13.74
2023-04-27T19:38:42.536Z,13.66
2023-04-27T19:41:10.698Z,13.58
2023-04-27T19:43:38.276Z,13.50
2023-04-27T19:46:06.209Z,13.41
2023-04-27T19:48:35.171Z,13.31
2023-04-27T19:51:02.919Z,13.25
2023-04-27T19:53:30.512Z,13.21
2023-04-27T19:56:00.590Z,13.16
2023-04-27T19:58:28.403Z,13.07
2023-04-27T20:00:56.025Z,12.85
2023-04-27T20:03:24.071Z,12.77
2023-04-27T20:05:53.562Z,12.47
2023-04-27T20:08:21.400Z,12.37
2023-04-27T20:10:49.197Z,12.22
2023-04-27T20:13:16.852Z,12.03
2023-04-27T20:15:44.510Z,11.89
2023-04-27T20:18:12.301Z,11.84
2023-04-27T20:20:42.013Z,11.84
2023-04-27T20:23:11.286Z,11.84
2023-04-27T20:25:38.951Z,11.86
2023-04-27T20:28:06.541Z,11.92
2023-04-27T20:30:34.370Z,11.92
2023-04-27T20:33:03.609Z,11.94
2023-04-27T20:35:31.290Z,11.95
2023-04-27T20:37:58.902Z,11.93
2023-04-27T20:40:28.172Z,11.92
2023-04-27T20:42:56.347Z,11.76
2023-04-27T20:45:25.363Z,11.76
2023-04-27T20:47:53.087Z,11.76
2023-04-27T20:50:20.699Z,11.68
2023-04-27T20:52:48.284Z,11.62
2023-04-27T20:55:16.068Z,11.55
2023-04-27T20:57:45.003Z,11.55
2023-04-27T21:00:15.364Z,11.50
2023-04-27T21:02:43.026Z,11.46
2023-04-27T21:05:11.001Z,11.45
2023-04-27T21:07:38.584Z,11.42
2023-04-27T21:10:08.110Z,11.39
2023-04-27T21:12:35.719Z,11.37
2023-04-27T21:15:05.324Z,11.34
2023-04-27T21:17:32.917Z,11.27
2023-04-27T21:20:00.665Z,11.16
2023-04-27T21:22:28.260Z,11.11
2023-04-27T21:24:55.965Z,11.11
2023-04-27T21:27:24.981Z,11.10
2023-04-27T21:29:53.194Z,11.09
2023-04-27T21:32:22.824Z,11.12
2023-04-27T21:34:50.973Z,11.12
2023-04-27T21:37:18.682Z,11.05
2023-04-27T21:39:46.568Z,11.08
2023-04-27T21:42:15.780Z,11.05
2023-04-27T21:44:43.348Z,10.98
2023-04-27T21:47:11.300Z,10.96
2023-04-27T21:49:40.239Z,10.94
2023-04-27T21:52:07.942Z,10.91
2023-04-27T21:54:35.530Z,10.90
2023-04-27T21:57:04.239Z,10.91
2023-04-27T21:59:31.823Z,10.89
2023-04-27T22:01:59.894Z,10.88
2023-04-27T22:04:28.752Z,10.71
2023-04-27T22:06:58.051Z,10.74
2023-04-27T22:09:25.612Z,10.75
2023-04-27T22:11:53.181Z,10.76
2023-04-27T22:14:20.874Z,10.72
2023-04-27T22:16:49.403Z,10.65
2023-04-27T22:19:17.848Z,10.61
2023-04-27T22:21:45.787Z,10.59
2023-04-27T22:24:15.012Z,10.52
2023-04-27T22:26:42.935Z,10.43
2023-04-27T22:29:10.526Z,10.37
2023-04-27T22:31:38.183Z,10.31
2023-04-27T22:34:06.196Z,10.27
2023-04-27T22:36:34.184Z,10.26
2023-04-27T22:39:01.771Z,10.26
2023-04-27T22:41:30.802Z,10.23
2023-04-27T22:43:58.375Z,10.23
2023-04-27T22:46:26.482Z,10.20
2023-04-27T22:48:55.054Z,10.23
2023-04-27T22:51:23.724Z,10.22
2023-04-27T22:53:51.309Z,10.23
2023-04-27T22:56:19.127Z,10.24
2023-04-27T22:58:48.087Z,10.24
2023-04-27T23:01:15.733Z,10.24
2023-04-27T23:03:43.632Z,10.23
2023-04-27T23:06:14.221Z,10.22
2023-04-27T23:08:44.720Z,10.25
2023-04-27T23:11:15.190Z,10.19
2023-04-27T23:13:42.798Z,10.18
2023-04-27T23:16:11.838Z,10.14
2023-04-27T23:18:40.025Z,10.09
2023-04-27T23:21:07.641Z,10.05
2023-04-27T23:23:35.971Z,9.96
2023-04-27T23:26:03.574Z,9.89
2023-04-27T23:28:31.521Z,9.92
2023-04-27T23:30:59.133Z,9.93
2023-04-27T23:33:28.548Z,9.92
2023-04-27T23:35:56.320Z,9.86
2023-04-27T23:38:24.193Z,9.81
2023-04-27T23:40:52.024Z,9.73
2023-04-27T23:43:19.834Z,9.73
2023-04-27T23:45:49.802Z,9.71
2023-04-27T23:48:17.589Z,9.67
2023-04-27T23:50:46.614Z,9.66
2023-04-27T23:53:14.332Z,9.64
2023-04-27T23:55:41.947Z,9.63
2023-04-27T23:58:09.646Z,9.67
